createdAt,value
2023-02-22T00:02:13.972Z,8.80
2023-02-22T00:04:40.775Z,8.70
2023-02-22T00:07:07.631Z,8.70
2023-02-22T00:09:34.407Z,8.60
2023-02-22T00:12:01.307Z,8.60
2023-02-22T00:14:28.537Z,8.70
2023-02-22T00:16:59.589Z,8.60
2023-02-22T00:19:28.107Z,8.60
2023-02-22T00:21:54.817Z,8.50
2023-02-22T00:24:24.555Z,8.30
2023-02-22T00:26:52.681Z,8.30
2023-02-22T00:29:19.331Z,8.10
2023-02-22T00:31:46.059Z,8.20
2023-02-22T00:34:14.568Z,8.20
2023-02-22T00:36:49.235Z,8.20
2023-02-22T00:39:16.435Z,8.10
2023-02-22T00:41:43.438Z,8.10
2023-02-22T00:44:10.416Z,8.20
2023-02-22T00:46:37.197Z,8.10
2023-02-22T00:49:05.249Z,8.10
2023-02-22T00:51:31.974Z,8.10
2023-02-22T00:53:58.679Z,8.10
2023-02-22T00:56:25.602Z,8.00
2023-02-22T00:58:52.273Z,8.10
2023-02-22T01:01:19.178Z,8.00
2023-02-22T01:03:46.150Z,8.00
2023-02-22T01:06:12.959Z,8.00
2023-02-22T01:08:44.984Z,7.90
2023-02-22T01:11:15.614Z,7.90
2023-02-22T01:13:45.283Z,7.90
2023-02-22T01:16:12.406Z,7.90
2023-02-22T01:18:39.460Z,7.90
2023-02-22T01:21:06.642Z,7.80
2023-02-22T01:23:33.342Z,7.60
2023-02-22T01:26:01.076Z,7.60
2023-02-22T01:28:29.977Z,7.60
2023-02-22T01:30:56.955Z,7.60
2023-02-22T01:33:24.067Z,7.60
2023-02-22T01:35:51.381Z,7.60
2023-02-22T01:38:18.211Z,7.60
2023-02-22T01:40:49.046Z,7.60
2023-02-22T01:43:15.763Z,7.60
2023-02-22T01:45:47.203Z,7.60
2023-02-22T01:48:36.591Z,7.60
2023-02-22T01:51:17.233Z,7.60
2023-02-22T01:54:04.421Z,7.60
2023-02-22T01:56:36.642Z,7.70
2023-02-22T01:59:08.604Z,7.70
2023-02-22T02:01:42.995Z,7.70
2023-02-22T02:04:15.515Z,7.70
2023-02-22T02:06:43.063Z,7.70
2023-02-22T02:09:30.961Z,7.70
2023-02-22T02:12:05.064Z,7.70
2023-02-22T02:14:32.095Z,7.70
2023-02-22T02:17:01.535Z,7.60
2023-02-22T02:19:41.901Z,7.60
2023-02-22T02:22:25.467Z,7.60
2023-02-22T02:25:11.394Z,7.60
2023-02-22T02:28:15.412Z,7.50
2023-02-22T02:30:53.944Z,7.50
2023-02-22T02:34:18.827Z,7.50
2023-02-22T02:37:12.287Z,7.50
2023-02-22T02:40:01.005Z,7.60
2023-02-22T02:42:36.381Z,7.60
2023-02-22T02:45:18.699Z,7.60
2023-02-22T02:47:54.374Z,7.60
2023-02-22T02:50:27.261Z,7.60
2023-02-22T02:52:57.373Z,7.60
2023-02-22T02:55:24.700Z,7.50
2023-02-22T02:57:51.459Z,7.50
2023-02-22T03:00:24.554Z,7.40
2023-02-22T03:03:06.650Z,7.50
2023-02-22T03:06:01.885Z,7.40
2023-02-22T03:08:37.702Z,7.30
2023-02-22T03:11:15.742Z,7.30
2023-02-22T03:13:55.763Z,7.30
2023-02-22T03:16:32.551Z,7.20
2023-02-22T03:21:40.682Z,7.10
2023-02-22T03:24:19.680Z,7.10
2023-02-22T03:27:37.244Z,7.10
2023-02-22T03:30:09.758Z,7.10
2023-02-22T03:32:41.272Z,7.00
2023-02-22T03:35:18.792Z,6.90
2023-02-22T03:37:51.365Z,6.90
2023-02-22T03:40:26.496Z,6.90
2023-02-22T03:43:01.489Z,6.80
2023-02-22T03:45:31.421Z,6.80
2023-02-22T03:48:06.864Z,6.70
2023-02-22T03:50:37.102Z,6.80
2023-02-22T03:53:04.918Z,6.80
2023-02-22T03:55:31.943Z,6.80
2023-02-22T03:58:01.843Z,6.80
2023-02-22T04:00:31.158Z,6.80
2023-02-22T04:02:58.287Z,6.60
2023-02-22T04:05:25.962Z,6.60
2023-02-22T04:07:57.379Z,6.50
2023-02-22T04:10:24.733Z,6.50
2023-02-22T04:12:51.748Z,6.60
2023-02-22T04:15:22.132Z,6.60
2023-02-22T04:17:52.257Z,6.60
2023-02-22T04:20:19.988Z,6.60
2023-02-22T04:22:47.486Z,6.70
2023-02-22T04:25:14.923Z,6.70
2023-02-22T04:27:41.750Z,6.70
2023-02-22T04:30:09.353Z,6.70
2023-02-22T04:32:36.071Z,6.80
2023-02-22T04:35:03.720Z,6.80
2023-02-22T04:37:30.498Z,6.80
2023-02-22T04:39:58.532Z,6.70
2023-02-22T04:42:25.201Z,6.60
2023-02-22T04:44:51.923Z,6.60
2023-02-22T04:47:18.883Z,6.50
2023-02-22T04:49:45.808Z,6.50
2023-02-22T04:52:12.619Z,6.50
2023-02-22T04:54:39.384Z,6.50
2023-02-22T04:57:06.222Z,6.50
2023-02-22T04:59:33.391Z,6.50
2023-02-22T05:02:00.961Z,6.40
2023-02-22T05:04:27.915Z,6.50
2023-02-22T05:06:55.114Z,6.50
2023-02-22T05:09:22.350Z,6.40
2023-02-22T05:11:49.474Z,6.40
2023-02-22T05:14:16.281Z,6.50
2023-02-22T05:16:43.194Z,6.50
2023-02-22T05:19:09.916Z,6.50
2023-02-22T05:21:36.589Z,6.50
2023-02-22T05:24:03.516Z,6.60
2023-02-22T05:26:31.249Z,6.60
2023-02-22T05:28:58.038Z,6.60
2023-02-22T05:31:24.792Z,6.70
2023-02-22T05:33:51.603Z,6.70
2023-02-22T05:36:18.355Z,6.70
2023-02-22T05:38:45.116Z,6.70
2023-02-22T05:41:12.787Z,6.70
2023-02-22T05:43:40.697Z,6.70
2023-02-22T05:46:07.809Z,6.70
2023-02-22T05:48:36.599Z,6.70
2023-02-22T05:51:04.099Z,6.70
2023-02-22T05:53:30.890Z,6.80
2023-02-22T05:55:57.822Z,6.70
2023-02-22T05:58:24.570Z,6.70
2023-02-22T06:00:51.405Z,6.60
2023-02-22T06:03:18.449Z,6.60
2023-02-22T06:05:45.437Z,6.50
2023-02-22T06:08:12.179Z,6.50
2023-02-22T06:10:38.915Z,6.40
2023-02-22T06:13:06.097Z,6.40
2023-02-22T06:15:35.206Z,6.40
2023-02-22T06:18:03.475Z,6.50
2023-02-22T06:20:30.962Z,6.50
2023-02-22T06:22:59.073Z,6.40
2023-02-22T06:25:31.446Z,6.50
2023-02-22T06:27:59.341Z,6.50
2023-02-22T06:30:27.594Z,6.40
2023-02-22T06:32:55.433Z,6.40
2023-02-22T06:35:23.170Z,6.40
2023-02-22T06:37:50.902Z,6.40
2023-02-22T06:40:17.683Z,6.50
2023-02-22T06:42:44.549Z,6.50
2023-02-22T06:45:14.410Z,6.50
2023-02-22T06:47:41.418Z,6.60
2023-02-22T06:50:26.202Z,6.60
2023-02-22T06:52:53.244Z,6.60
2023-02-22T06:55:31.886Z,6.80
2023-02-22T06:57:59.386Z,6.80
2023-02-22T07:00:27.587Z,6.80
2023-02-22T07:02:55.062Z,6.80
2023-02-22T07:05:24.713Z,6.90
2023-02-22T07:07:53.940Z,6.90
2023-02-22T07:10:27.444Z,6.80
2023-02-22T07:12:54.521Z,6.80
2023-02-22T07:15:23.751Z,6.80
2023-02-22T07:17:51.458Z,6.80
2023-02-22T07:20:20.696Z,6.80
2023-02-22T07:22:48.584Z,6.80
2023-02-22T07:25:15.283Z,6.90
2023-02-22T07:27:42.962Z,6.90
2023-02-22T07:30:30.785Z,6.90
2023-02-22T07:33:00.036Z,6.90
2023-02-22T07:35:29.593Z,6.90
2023-02-22T07:37:57.008Z,7.00
2023-02-22T07:40:26.319Z,7.00
2023-02-22T07:42:58.360Z,7.00
2023-02-22T07:45:27.496Z,7.10
2023-02-22T07:48:00.582Z,7.10
2023-02-22T07:50:32.399Z,7.10
2023-02-22T07:53:01.565Z,7.00
2023-02-22T07:55:30.193Z,6.90
2023-02-22T07:58:02.028Z,7.00
2023-02-22T08:00:33.588Z,6.90
2023-02-22T08:03:03.448Z,7.00
2023-02-22T08:05:31.416Z,7.00
2023-02-22T08:07:59.502Z,7.00
2023-02-22T08:10:27.928Z,7.10
2023-02-22T08:12:56.026Z,7.10
2023-02-22T08:15:25.647Z,7.10
2023-02-22T08:17:53.484Z,7.20
2023-02-22T08:20:20.361Z,7.30
2023-02-22T08:22:47.848Z,7.30
2023-02-22T08:25:16.978Z,7.40
2023-02-22T08:27:44.009Z,7.40
2023-02-22T08:30:19.046Z,7.40
2023-02-22T08:32:47.080Z,7.50
2023-02-22T08:35:15.742Z,7.60
2023-02-22T08:37:53.937Z,7.50
2023-02-22T08:40:25.945Z,7.50
2023-02-22T08:42:52.686Z,7.50
2023-02-22T08:45:19.860Z,7.60
2023-02-22T08:47:46.963Z,7.70
2023-02-22T08:50:19.907Z,7.70
2023-02-22T08:52:46.594Z,7.80
2023-02-22T08:55:13.394Z,7.90
2023-02-22T08:57:40.069Z,8.00
2023-02-22T09:00:07.681Z,8.00
2023-02-22T09:02:34.398Z,8.10
2023-02-22T09:05:01.082Z,8.10
2023-02-22T09:07:27.823Z,8.30
2023-02-22T09:09:54.597Z,8.30
2023-02-22T09:12:21.281Z,8.30
2023-02-22T09:14:48.008Z,8.40
2023-02-22T09:17:14.738Z,8.50
2023-02-22T09:19:42.820Z,8.70
2023-02-22T09:22:09.538Z,8.70
2023-02-22T09:24:36.211Z,8.80
2023-02-22T09:27:04.570Z,8.90
2023-02-22T09:29:31.376Z,9.00
2023-02-22T09:31:58.285Z,8.90
2023-02-22T09:34:29.653Z,9.00
2023-02-22T09:36:58.384Z,9.00
2023-02-22T09:39:25.349Z,9.10
2023-02-22T09:42:22.767Z,9.20
2023-02-22T09:45:03.496Z,9.30
2023-02-22T09:47:39.875Z,9.40
2023-02-22T09:50:29.980Z,9.50
2023-02-22T09:53:04.977Z,9.70
2023-02-22T09:55:34.607Z,9.90
2023-02-22T09:58:28.652Z,10.10
2023-02-22T10:01:05.154Z,10.20
2023-02-22T10:03:42.596Z,10.30
2023-02-22T10:06:15.608Z,10.50
2023-02-22T10:08:44.778Z,10.60
2023-02-22T10:11:22.688Z,10.70
2023-02-22T10:14:19.043Z,10.80
2023-02-22T10:17:15.607Z,10.90
2023-02-22T10:20:00.821Z,11.00
2023-02-22T10:22:41.519Z,11.10
2023-02-22T10:25:19.337Z,11.10
2023-02-22T10:27:54.995Z,11.10
2023-02-22T10:30:35.577Z,11.10
2023-02-22T10:33:20.137Z,11.10
2023-02-22T10:35:47.315Z,11.10
2023-02-22T10:38:40.259Z,11.10
2023-02-22T10:41:09.925Z,11.10
2023-02-22T10:43:44.777Z,11.10
2023-02-22T10:46:16.466Z,11.20
2023-02-22T10:48:48.904Z,11.20
2023-02-22T10:51:17.255Z,11.30
2023-02-22T10:53:47.765Z,11.30
2023-02-22T10:56:22.379Z,11.30
2023-02-22T10:59:00.691Z,11.30
2023-02-22T11:01:36.248Z,11.30
2023-02-22T11:04:16.043Z,11.40
2023-02-22T11:06:49.788Z,11.40
2023-02-22T11:12:09.560Z,11.60
2023-02-22T11:14:36.217Z,11.70
2023-02-22T11:17:09.428Z,11.80
2023-02-22T11:19:38.381Z,11.90
2023-02-22T11:22:15.204Z,11.90
2023-02-22T11:27:40.746Z,12.00
2023-02-22T11:30:31.791Z,12.00
2023-02-22T11:33:18.903Z,12.00
2023-02-22T11:35:52.868Z,12.00
2023-02-22T11:38:22.748Z,12.10
2023-02-22T11:41:15.020Z,12.10
2023-02-22T11:43:45.521Z,12.20
2023-02-22T11:46:27.610Z,12.30
2023-02-22T11:49:12.368Z,12.40
2023-02-22T11:51:39.105Z,12.50
2023-02-22T11:54:11.639Z,12.60
2023-02-22T11:56:48.870Z,12.70
2023-02-22T11:59:45.512Z,12.80
2023-02-22T12:02:24.303Z,12.90
2023-02-22T12:05:08.091Z,12.90
2023-02-22T12:07:57.185Z,13.00
2023-02-22T12:10:39.350Z,13.10
2023-02-22T12:13:33.857Z,13.20
2023-02-22T12:16:09.818Z,13.30
2023-02-22T12:18:42.759Z,13.30
2023-02-22T12:21:16.788Z,13.30
2023-02-22T12:23:46.234Z,13.40
2023-02-22T12:26:27.501Z,13.40
2023-02-22T12:29:26.135Z,13.40
2023-02-22T12:32:00.539Z,13.50
2023-02-22T12:34:46.060Z,13.50
2023-02-22T12:37:22.140Z,13.60
2023-02-22T12:40:13.686Z,13.70
2023-02-22T12:42:55.705Z,13.80
2023-02-22T12:45:44.844Z,13.90
2023-02-22T12:48:31.547Z,13.90
2023-02-22T12:51:43.284Z,14.00
2023-02-22T12:54:22.294Z,14.10
2023-02-22T12:56:59.107Z,14.10
2023-02-22T12:59:29.822Z,14.10
2023-02-22T13:02:31.161Z,14.10
2023-02-22T13:04:57.995Z,14.10
2023-02-22T13:08:13.714Z,14.00
2023-02-22T13:11:02.795Z,14.10
2023-02-22T13:14:01.025Z,14.10
2023-02-22T13:16:42.658Z,14.10
2023-02-22T13:19:15.211Z,14.20
2023-02-22T13:21:53.326Z,14.20
2023-02-22T13:24:26.517Z,14.30
2023-02-22T13:27:06.379Z,14.30
2023-02-22T13:29:46.429Z,14.30
2023-02-22T13:32:28.152Z,14.40
2023-02-22T13:35:29.778Z,14.40
2023-02-22T13:38:24.104Z,14.50
2023-02-22T13:41:16.985Z,14.60
2023-02-22T13:43:58.792Z,14.60
2023-02-22T13:47:10.403Z,14.60
2023-02-22T13:50:20.210Z,14.60
2023-02-22T13:52:48.915Z,14.70
2023-02-22T13:55:27.481Z,14.70
2023-02-22T13:58:06.342Z,14.70
2023-02-22T14:00:57.256Z,14.80
2023-02-22T14:03:43.115Z,14.80
2023-02-22T14:06:31.725Z,14.80
2023-02-22T14:08:58.619Z,14.90
2023-02-22T14:11:34.250Z,14.90
2023-02-22T14:14:01.084Z,14.90
2023-02-22T14:16:32.037Z,14.90
2023-02-22T14:19:14.517Z,14.90
2023-02-22T14:22:06.657Z,14.90
2023-02-22T14:24:46.947Z,14.90
2023-02-22T14:27:15.163Z,14.90
2023-02-22T14:29:57.155Z,14.90
2023-02-22T14:32:35.256Z,15.00
2023-02-22T14:35:26.576Z,15.00
2023-02-22T14:38:01.712Z,15.00
2023-02-22T14:40:31.300Z,15.00
2023-02-22T14:43:10.517Z,15.00
2023-02-22T14:45:56.613Z,15.00
2023-02-22T14:48:46.707Z,15.00
2023-02-22T14:51:26.592Z,15.00
2023-02-22T14:54:04.121Z,15.00
2023-02-22T14:56:47.531Z,15.00
2023-02-22T14:59:21.662Z,15.00
2023-02-22T15:02:02.131Z,15.00
2023-02-22T15:04:38.378Z,15.10
2023-02-22T15:07:09.553Z,15.10
2023-02-22T15:09:37.549Z,15.10
2023-02-22T15:12:05.246Z,15.10
2023-02-22T15:14:33.266Z,15.00
2023-02-22T15:17:01.371Z,15.10
2023-02-22T15:19:29.250Z,15.00
2023-02-22T15:21:57.320Z,15.00
2023-02-22T15:24:31.602Z,15.00
2023-02-22T15:27:06.192Z,15.10
2023-02-22T15:29:36.393Z,15.10
2023-02-22T15:32:03.187Z,15.20
2023-02-22T15:34:31.130Z,15.20
2023-02-22T15:37:06.514Z,15.20
2023-02-22T15:39:34.567Z,15.20
2023-02-22T15:42:02.635Z,15.20
2023-02-22T15:44:35.228Z,15.30
2023-02-22T15:47:02.514Z,15.30
2023-02-22T15:49:33.960Z,15.30
2023-02-22T15:52:08.432Z,15.30
2023-02-22T15:54:39.667Z,15.30
2023-02-22T15:57:06.287Z,15.30
2023-02-22T15:59:35.050Z,15.20
2023-02-22T16:02:01.928Z,15.20
2023-02-22T16:04:30.671Z,15.20
2023-02-22T16:07:07.238Z,15.10
2023-02-22T16:09:34.023Z,15.00
2023-02-22T16:12:09.534Z,15.00
2023-02-22T16:14:36.121Z,15.00
2023-02-22T16:17:31.302Z,15.00
2023-02-22T16:20:17.830Z,15.00
2023-02-22T16:22:49.305Z,15.00
2023-02-22T16:25:19.575Z,15.00
2023-02-22T16:27:47.836Z,15.00
2023-02-22T16:30:24.024Z,15.00
2023-02-22T16:32:51.594Z,14.90
2023-02-22T16:38:33.362Z,15.00
2023-02-22T16:41:03.144Z,15.00
2023-02-22T16:43:32.841Z,15.10
2023-02-22T16:46:01.666Z,15.10
2023-02-22T16:48:38.570Z,15.10
2023-02-22T16:51:31.360Z,15.10
2023-02-22T16:53:58.261Z,15.10
2023-02-22T16:56:29.676Z,15.10
2023-02-22T16:58:58.109Z,15.10
2023-02-22T17:01:24.789Z,15.10
2023-02-22T17:03:54.183Z,15.20
2023-02-22T17:06:22.284Z,15.20
2023-02-22T17:08:52.111Z,15.10
2023-02-22T17:11:19.239Z,15.10
2023-02-22T17:13:47.477Z,15.10
2023-02-22T17:16:15.338Z,15.10
2023-02-22T17:18:42.439Z,15.10
2023-02-22T17:21:10.989Z,15.10
2023-02-22T17:23:37.961Z,15.10
2023-02-22T17:26:04.823Z,15.10
2023-02-22T17:28:31.958Z,15.00
2023-02-22T17:31:01.618Z,14.90
2023-02-22T17:33:30.344Z,14.90
2023-02-22T17:35:58.031Z,14.80
2023-02-22T17:38:26.956Z,14.80
2023-02-22T17:40:54.829Z,14.70
2023-02-22T17:43:22.183Z,14.60
2023-02-22T17:45:49.067Z,14.60
2023-02-22T17:48:16.462Z,14.50
2023-02-22T17:50:44.110Z,14.40
2023-02-22T17:53:11.294Z,14.30
2023-02-22T17:55:39.190Z,14.30
2023-02-22T17:58:06.136Z,14.20
2023-02-22T18:00:35.375Z,14.20
2023-02-22T18:03:05.049Z,14.10
2023-02-22T18:05:35.446Z,14.10
2023-02-22T18:08:02.105Z,14.10
2023-02-22T18:10:28.781Z,14.10
2023-02-22T18:12:56.821Z,14.10
2023-02-22T18:15:23.622Z,14.10
2023-02-22T18:17:50.547Z,14.10
2023-02-22T18:20:31.165Z,14.10
2023-02-22T18:22:58.778Z,14.20
2023-02-22T18:25:25.619Z,14.20
2023-02-22T18:27:53.296Z,14.20
2023-02-22T18:30:19.977Z,14.30
2023-02-22T18:32:46.589Z,14.40
2023-02-22T18:35:13.212Z,14.30
2023-02-22T18:37:40.228Z,14.30
2023-02-22T18:40:13.079Z,14.40
2023-02-22T18:42:40.285Z,14.30
2023-02-22T18:45:08.045Z,14.40
2023-02-22T18:47:39.507Z,14.40
2023-02-22T18:50:06.838Z,14.30
2023-02-22T18:52:35.146Z,14.30
2023-02-22T18:55:01.771Z,14.30
2023-02-22T18:57:28.367Z,14.30
2023-02-22T18:59:56.749Z,14.30
2023-02-22T19:02:25.527Z,14.20
2023-02-22T19:04:52.606Z,14.20
2023-02-22T19:07:20.666Z,14.20
2023-02-22T19:09:51.047Z,14.20
2023-02-22T19:12:18.360Z,14.20
2023-02-22T19:14:47.977Z,14.20
2023-02-22T19:17:17.990Z,14.10
2023-02-22T19:19:45.870Z,14.10
2023-02-22T19:22:15.446Z,14.10
2023-02-22T19:24:42.528Z,14.00
2023-02-22T19:27:09.653Z,13.90
2023-02-22T19:29:42.409Z,13.90
2023-02-22T19:32:11.273Z,13.80
2023-02-22T19:34:38.714Z,13.80
2023-02-22T19:37:05.940Z,13.90
2023-02-22T19:39:33.461Z,13.90
2023-02-22T19:42:00.515Z,14.00
2023-02-22T19:44:27.901Z,14.00
2023-02-22T19:46:55.750Z,14.00
2023-02-22T19:52:10.744Z,14.10
2023-02-22T19:54:37.332Z,14.10
2023-02-22T19:57:05.452Z,14.20
2023-02-22T19:59:32.070Z,14.20
2023-02-22T20:01:59.792Z,14.20
2023-02-22T20:04:30.460Z,14.20
2023-02-22T20:06:58.034Z,14.20
2023-02-22T20:09:40.360Z,14.20
2023-02-22T20:12:07.382Z,14.30
2023-02-22T20:14:34.240Z,14.30
2023-02-22T20:17:00.964Z,14.30
2023-02-22T20:19:27.918Z,14.30
2023-02-22T20:22:00.295Z,14.30
2023-02-22T20:24:27.698Z,14.30
2023-02-22T20:26:56.500Z,14.40
2023-02-22T20:29:29.488Z,14.40
2023-02-22T20:31:57.868Z,14.30
2023-02-22T20:34:26.066Z,14.30
2023-02-22T20:36:52.929Z,14.30
2023-02-22T20:39:20.722Z,14.30
2023-02-22T20:41:47.416Z,14.30
2023-02-22T20:44:15.649Z,14.40
2023-02-22T20:46:43.757Z,14.40
2023-02-22T20:49:12.037Z,14.40
2023-02-22T20:51:42.025Z,14.30
2023-02-22T20:54:11.552Z,14.40
2023-02-22T20:56:39.978Z,14.40
2023-02-22T20:59:06.689Z,14.30
2023-02-22T21:01:33.463Z,14.40
2023-02-22T21:04:04.473Z,14.40
2023-02-22T21:06:31.074Z,14.40
2023-02-22T21:08:59.912Z,14.30
2023-02-22T21:11:31.656Z,14.40
2023-02-22T21:13:58.909Z,14.30
2023-02-22T21:16:33.422Z,14.30
2023-02-22T21:19:01.316Z,14.30
2023-02-22T21:21:31.297Z,14.30
2023-02-22T21:24:01.782Z,14.30
2023-02-22T21:26:30.648Z,14.30
2023-02-22T21:28:59.080Z,14.30
2023-02-22T21:31:28.046Z,14.30
2023-02-22T21:33:56.067Z,14.30
2023-02-22T21:36:27.466Z,14.20
2023-02-22T21:38:55.292Z,14.20
2023-02-22T21:41:23.667Z,14.20
2023-02-22T21:43:51.247Z,14.20
2023-02-22T21:46:18.420Z,14.20
2023-02-22T21:48:48.547Z,14.20
2023-02-22T21:51:26.734Z,14.20
2023-02-22T21:53:54.610Z,14.10
2023-02-22T21:56:24.431Z,14.10
2023-02-22T21:59:01.953Z,14.10
2023-02-22T22:01:29.672Z,14.10
2023-02-22T22:03:59.527Z,14.10
2023-02-22T22:06:30.219Z,14.10
2023-02-22T22:08:57.675Z,14.10
2023-02-22T22:11:25.210Z,14.10
2023-02-22T22:13:59.574Z,14.10
2023-02-22T22:16:30.211Z,14.00
2023-02-22T22:18:57.307Z,14.00
2023-02-22T22:21:25.776Z,14.00
2023-02-22T22:23:55.993Z,14.00
2023-02-22T22:26:24.697Z,13.90
2023-02-22T22:28:56.052Z,14.00
2023-02-22T22:31:25.224Z,14.00
2023-02-22T22:33:52.291Z,13.90
2023-02-22T22:36:21.287Z,13.90
2023-02-22T22:38:49.193Z,13.90
2023-02-22T22:41:17.378Z,13.90
2023-02-22T22:43:46.330Z,13.80
2023-02-22T22:46:14.020Z,13.80
2023-02-22T22:48:40.755Z,13.80
2023-02-22T22:51:12.122Z,13.80
2023-02-22T22:53:39.900Z,13.80
2023-02-22T22:56:08.905Z,13.70
2023-02-22T22:58:35.779Z,13.70
2023-02-22T23:01:06.347Z,13.70
2023-02-22T23:03:36.942Z,13.70
2023-02-22T23:06:04.895Z,13.60
2023-02-22T23:08:43.081Z,13.60
2023-02-22T23:11:10.551Z,13.60
2023-02-22T23:13:38.018Z,13.70
2023-02-22T23:16:07.851Z,13.70
2023-02-22T23:18:34.622Z,13.70
2023-02-22T23:21:05.424Z,13.60
2023-02-22T23:23:32.320Z,13.70
2023-02-22T23:26:03.053Z,13.60
2023-02-22T23:28:29.711Z,13.60
2023-02-22T23:30:59.729Z,13.60
2023-02-22T23:33:26.492Z,13.60
2023-02-22T23:35:53.486Z,13.60
2023-02-22T23:38:21.187Z,13.60
2023-02-22T23:40:47.833Z,13.50
2023-02-22T23:43:17.326Z,13.50
2023-02-22T23:45:48.053Z,13.50
2023-02-22T23:48:14.644Z,13.50
2023-02-22T23:50:41.285Z,13.50
2023-02-22T23:53:15.194Z,13.50
2023-02-22T23:55:44.219Z,13.50
2023-02-22T23:58:10.846Z,13.40
